Time;durP1;ratioP1;P1;durP2;ratioP2;P2;SDS_P1;SDS_P2;PMS_P1;PMS_P2;Temp;Humidity;BMP_temperature;BMP_pressure;BME280_temperature;BME280_humidity;BME280_pressure;Samples;Min_cycle;Max_cycle;Signal;HPM_P1;HPM_P2
2022/04/05 00:00:13;;;;;;;9.53;7.07;;;2.60;99.90;;;;;;5060336;28;20404;-82
2022/04/05 00:02:39;;;;;;;9.97;6.10;;;2.20;99.90;;;;;;5058065;28;20639;-82
2022/04/05 00:05:06;;;;;;;9.80;7.67;;;2.20;99.90;;;;;;5059842;28;20412;-82
2022/04/05 00:07:31;;;;;;;11.10;7.90;;;2.20;99.90;;;;;;5059191;28;20416;-82
2022/04/05 00:09:57;;;;;;;13.07;7.53;;;2.20;99.90;;;;;;5059360;28;21003;-82
2022/04/05 00:12:23;;;;;;;9.83;7.30;;;2.20;99.90;;;;;;5060905;28;20242;-82
2022/04/05 00:14:49;;;;;;;9.87;7.10;;;2.10;99.90;;;;;;5061070;28;20542;-82
2022/04/05 00:17:15;;;;;;;8.80;7.07;;;2.20;99.90;;;;;;5059485;28;20435;-82
2022/04/05 00:19:41;;;;;;;8.60;6.40;;;2.20;99.90;;;;;;5059148;28;20205;-82
2022/04/05 00:22:07;;;;;;;10.00;7.47;;;2.30;99.90;;;;;;5059876;28;20404;-82
2022/04/05 00:24:33;;;;;;;6.97;5.70;;;2.30;99.90;;;;;;5059047;28;20216;-80
2022/04/05 00:26:59;;;;;;;6.93;5.77;;;2.30;99.90;;;;;;5059152;28;20538;-82
2022/04/05 00:29:24;;;;;;;7.83;6.07;;;2.30;99.90;;;;;;5059638;28;20236;-82
2022/04/05 00:31:51;;;;;;;8.27;5.23;;;2.40;99.90;;;;;;5059155;28;20416;-82
2022/04/05 00:34:17;;;;;;;7.83;6.73;;;2.40;99.90;;;;;;5058695;28;20177;-81
2022/04/05 00:36:44;;;;;;;8.80;6.93;;;2.40;99.90;;;;;;5060249;28;20484;-83
2022/04/05 00:39:10;;;;;;;8.03;6.33;;;2.30;99.90;;;;;;5060062;28;20509;-81
2022/04/05 00:41:36;;;;;;;6.57;5.47;;;2.10;99.90;;;;;;5057940;28;20914;-82
2022/04/05 00:44:02;;;;;;;6.13;5.07;;;2.00;99.90;;;;;;5059534;28;20423;-82
2022/04/05 00:46:28;;;;;;;9.63;6.60;;;2.00;99.90;;;;;;5059831;28;20173;-81
2022/04/05 00:48:59;;;;;;;7.07;5.93;;;2.00;99.90;;;;;;5059718;28;20491;-81
2022/04/05 00:51:26;;;;;;;7.97;5.73;;;2.10;99.90;;;;;;5059644;28;20173;-81
2022/04/05 00:53:55;;;;;;;11.00;7.30;;;2.00;99.90;;;;;;5057772;28;20510;-82
2022/04/05 00:56:22;;;;;;;8.63;7.10;;;2.00;99.90;;;;;;5060194;28;20423;-80
2022/04/05 00:58:50;;;;;;;6.17;5.00;;;2.00;99.90;;;;;;5059188;28;20452;-82
2022/04/05 01:01:18;;;;;;;8.83;6.43;;;2.00;99.90;;;;;;5058972;28;20404;-82
2022/04/05 01:03:50;;;;;;;9.03;6.47;;;2.00;99.90;;;;;;5059218;28;20906;-81
2022/04/05 01:06:25;;;;;;;7.03;5.77;;;1.80;99.90;;;;;;5059863;28;20400;-82
2022/04/05 01:08:51;;;;;;;11.10;8.10;;;1.80;99.90;;;;;;5058895;28;20877;-82
2022/04/05 01:11:17;;;;;;;8.90;5.27;;;1.70;99.90;;;;;;5059315;28;20438;-81
2022/04/05 01:13:43;;;;;;;7.03;5.60;;;1.80;99.90;;;;;;5057461;28;20173;-82
2022/04/05 01:16:11;;;;;;;8.13;6.00;;;1.70;99.90;;;;;;5059119;28;20174;-82
2022/04/05 01:18:37;;;;;;;8.10;6.90;;;1.70;99.90;;;;;;5057197;28;20459;-82
2022/04/05 01:21:03;;;;;;;8.67;7.63;;;1.70;99.90;;;;;;5059008;28;20404;-82
2022/04/05 01:23:29;;;;;;;9.87;6.40;;;1.80;99.90;;;;;;5059567;28;20430;-82
2022/04/05 01:25:56;;;;;;;9.77;7.77;;;1.70;99.90;;;;;;5057076;28;20588;-82
2022/04/05 01:28:26;;;;;;;8.50;6.30;;;1.70;99.90;;;;;;5057018;28;20319;-81
2022/04/05 01:30:52;;;;;;;7.03;5.33;;;1.70;99.90;;;;;;5057923;28;20423;-82
2022/04/05 01:33:18;;;;;;;9.57;6.43;;;1.80;99.90;;;;;;5058753;28;20578;-82
2022/04/05 01:35:43;;;;;;;9.47;6.60;;;1.70;99.90;;;;;;5059071;28;20443;-81
2022/04/05 01:38:10;;;;;;;8.53;6.70;;;1.70;99.90;;;;;;5058711;28;20205;-82
2022/04/05 01:40:36;;;;;;;7.60;6.50;;;1.80;99.90;;;;;;5060342;28;20170;-80
2022/04/05 01:43:02;;;;;;;6.03;4.43;;;1.70;99.90;;;;;;5058117;28;20436;-82
2022/04/05 01:45:27;;;;;;;9.10;6.80;;;1.70;99.90;;;;;;5056406;28;20784;-82
2022/04/05 01:47:53;;;;;;;3.63;3.10;;;1.80;99.90;;;;;;5056493;28;20224;-82
2022/04/05 01:50:19;;;;;;;8.23;5.80;;;1.80;99.90;;;;;;5058036;28;20173;-81
2022/04/05 01:52:45;;;;;;;8.80;6.20;;;1.90;99.90;;;;;;5058141;28;20173;-81
2022/04/05 01:55:10;;;;;;;7.53;4.57;;;1.90;99.90;;;;;;5059067;28;20180;-82
2022/04/05 01:57:36;;;;;;;7.83;6.30;;;;;;;;;;5056315;28;20177;-82
2022/04/05 02:00:04;;;;;;;6.23;5.07;;;2.00;99.90;;;;;;5058001;28;20201;-82
2022/04/05 02:02:30;;;;;;;7.40;5.60;;;2.00;99.90;;;;;;5055861;28;20503;-81
2022/04/05 02:04:56;;;;;;;6.50;5.50;;;2.00;99.90;;;;;;5057962;28;20442;-82
2022/04/05 02:07:21;;;;;;;6.17;4.57;;;2.10;99.90;;;;;;5056901;28;20288;-82
2022/04/05 02:09:49;;;;;;;7.93;4.57;;;2.20;99.90;;;;;;5055889;28;20201;-82
2022/04/05 02:12:16;;;;;;;7.50;5.67;;;2.30;99.90;;;;;;5056147;28;20178;-82
2022/04/05 02:14:41;;;;;;;5.00;4.20;;;2.30;99.90;;;;;;5056707;28;20778;-79
2022/04/05 02:17:07;;;;;;;10.00;7.10;;;2.30;99.90;;;;;;5056481;28;20419;-81
2022/04/05 02:19:38;;;;;;;4.60;2.97;;;2.40;99.90;;;;;;5055753;28;20239;-81
2022/04/05 02:22:04;;;;;;;9.33;7.13;;;2.40;99.90;;;;;;5055762;28;20166;-81
2022/04/05 02:24:30;;;;;;;8.37;6.53;;;2.40;99.90;;;;;;5056981;28;20431;-82
2022/04/05 02:26:55;;;;;;;8.03;5.30;;;2.50;99.90;;;;;;5055699;28;20913;-82
2022/04/05 02:29:21;;;;;;;10.03;6.90;;;2.60;99.90;;;;;;5055347;28;20205;-80
2022/04/05 02:31:47;;;;;;;7.63;5.73;;;2.70;99.90;;;;;;5058321;28;20191;-81
2022/04/05 02:34:13;;;;;;;8.90;6.97;;;2.60;99.90;;;;;;5056791;28;20181;-82
2022/04/05 02:36:38;;;;;;;9.40;6.67;;;2.70;99.90;;;;;;5056357;28;20200;-82
2022/04/05 02:39:05;;;;;;;8.10;6.27;;;2.70;99.90;;;;;;5056466;28;20205;-80
2022/04/05 02:41:31;;;;;;;8.13;5.33;;;2.60;99.90;;;;;;5057149;28;20220;-82
2022/04/05 02:43:58;;;;;;;11.97;8.10;;;2.70;99.90;;;;;;5056079;28;20419;-82
2022/04/05 02:46:24;;;;;;;10.10;6.37;;;2.80;99.90;;;;;;5057193;28;20169;-81
2022/04/05 02:48:53;;;;;;;11.23;7.83;;;2.70;99.90;;;;;;5056443;28;20578;-82
2022/04/05 02:51:19;;;;;;;7.60;6.53;;;2.80;99.90;;;;;;5056368;28;20419;-82
2022/04/05 02:53:45;;;;;;;5.77;3.63;;;2.80;99.90;;;;;;5056586;28;20503;-81
2022/04/05 02:56:10;;;;;;;7.70;5.63;;;2.90;99.90;;;;;;5055177;28;20173;-80
2022/04/05 02:58:37;;;;;;;12.07;8.03;;;3.00;99.90;;;;;;5055254;28;20205;-80
2022/04/05 03:01:04;;;;;;;6.43;5.10;;;2.90;99.90;;;;;;5056616;28;20597;-82
2022/04/05 03:03:30;;;;;;;10.30;7.17;;;3.00;99.90;;;;;;5055950;28;20412;-81
2022/04/05 03:05:56;;;;;;;5.90;4.77;;;3.10;99.90;;;;;;5056574;28;20424;-81
2022/04/05 03:08:22;;;;;;;9.77;7.63;;;3.20;99.90;;;;;;5055525;28;20447;-82
2022/04/05 03:10:48;;;;;;;7.73;6.33;;;3.20;99.90;;;;;;5056284;28;20710;-82
2022/04/05 03:13:14;;;;;;;8.33;6.17;;;3.20;99.90;;;;;;5055305;28;20211;-82
2022/04/05 03:15:40;;;;;;;7.00;6.27;;;3.30;99.90;;;;;;5055054;28;20426;-82
2022/04/05 03:18:05;;;;;;;8.47;6.93;;;3.30;99.90;;;;;;5055408;28;20613;-81
2022/04/05 03:20:32;;;;;;;10.33;6.20;;;3.30;99.90;;;;;;5056352;28;20180;-81
2022/04/05 03:23:00;;;;;;;6.27;5.53;;;3.30;99.90;;;;;;5055323;28;20177;-80
2022/04/05 03:25:26;;;;;;;8.00;5.57;;;3.40;99.90;;;;;;5055116;28;20421;-82
2022/04/05 03:27:52;;;;;;;3.47;2.90;;;3.40;99.90;;;;;;5057413;28;20432;-82
2022/04/05 03:30:22;;;;;;;8.00;5.77;;;3.50;99.90;;;;;;5056997;28;20984;-82
2022/04/05 03:32:48;;;;;;;10.00;7.33;;;3.60;99.90;;;;;;5055103;28;20408;-80
2022/04/05 03:35:14;;;;;;;9.80;6.67;;;;;;;;;;5055488;28;20501;-81
2022/04/05 03:37:40;;;;;;;6.10;5.13;;;3.60;99.90;;;;;;5057626;28;20432;-81
2022/04/05 03:40:07;;;;;;;6.33;5.23;;;3.60;99.90;;;;;;5056570;28;20209;-82
2022/04/05 03:42:33;;;;;;;9.70;6.60;;;3.60;99.90;;;;;;5055162;28;20251;-82
2022/04/05 03:44:59;;;;;;;6.80;5.70;;;3.70;99.90;;;;;;5054866;28;20412;-81
2022/04/05 03:47:27;;;;;;;10.33;6.87;;;3.70;99.90;;;;;;5056993;28;20415;-82
2022/04/05 03:49:53;;;;;;;6.60;5.90;;;3.70;99.90;;;;;;5056764;28;20436;-80
2022/04/05 03:52:19;;;;;;;9.30;5.70;;;3.70;99.90;;;;;;5054886;28;20431;-82
2022/04/05 03:54:45;;;;;;;10.53;6.70;;;3.70;99.90;;;;;;5054735;28;20491;-80
2022/04/05 03:57:11;;;;;;;9.47;6.90;;;3.70;99.90;;;;;;5056053;28;20424;-79
2022/04/05 03:59:37;;;;;;;9.83;7.00;;;3.70;99.90;;;;;;5060101;28;20455;-82
2022/04/05 04:02:03;;;;;;;6.03;5.17;;;3.70;99.90;;;;;;5059745;28;20203;-81
2022/04/05 04:04:29;;;;;;;8.93;7.10;;;3.70;99.90;;;;;;5057771;28;20936;-82
2022/04/05 04:06:54;;;;;;;8.93;6.23;;;3.70;99.90;;;;;;5059162;28;20420;-80
2022/04/05 04:09:20;;;;;;;6.67;5.93;;;3.70;99.90;;;;;;5060127;28;20694;-82
2022/04/05 04:11:46;;;;;;;8.60;6.03;;;3.70;99.90;;;;;;5059648;28;20188;-81
2022/04/05 04:14:12;;;;;;;3.90;3.53;;;3.80;99.90;;;;;;5058045;28;20177;-81
2022/04/05 04:16:37;;;;;;;8.73;7.10;;;3.80;99.90;;;;;;5058465;28;20712;-82
2022/04/05 04:19:04;;;;;;;8.93;6.90;;;3.80;99.90;;;;;;5061025;28;20227;-81
2022/04/05 04:21:30;;;;;;;8.77;6.87;;;;;;;;;;5059549;28;20178;-83
2022/04/05 04:23:56;;;;;;;5.73;4.17;;;3.80;99.90;;;;;;5059536;28;20408;-82
2022/04/05 04:26:21;;;;;;;9.70;5.80;;;3.80;99.90;;;;;;5060854;28;20424;-83
2022/04/05 04:28:52;;;;;;;8.30;6.23;;;3.80;99.90;;;;;;5060416;28;20251;-81
2022/04/05 04:31:18;;;;;;;8.27;6.60;;;3.80;99.90;;;;;;5059190;28;20178;-81
2022/04/05 04:33:44;;;;;;;8.50;6.40;;;3.70;99.90;;;;;;5058476;28;20910;-81
2022/04/05 04:36:12;;;;;;;12.93;8.30;;;3.80;99.90;;;;;;5059033;28;20428;-81
2022/04/05 04:38:37;;;;;;;12.07;6.73;;;3.80;99.90;;;;;;5058424;28;20403;-82
2022/04/05 04:41:03;;;;;;;8.43;4.60;;;3.70;99.90;;;;;;5059330;28;20485;-83
2022/04/05 04:43:29;;;;;;;10.70;7.60;;;;;;;;;;5060199;28;20176;-82
2022/04/05 04:45:55;;;;;;;8.40;5.63;;;3.80;99.90;;;;;;5067461;28;20744;-80
2022/04/05 04:48:21;;;;;;;7.77;6.37;;;3.80;99.90;;;;;;5074035;28;20198;-82
2022/04/05 04:50:48;;;;;;;7.50;6.37;;;3.70;99.90;;;;;;5064188;28;20170;-81
2022/04/05 04:53:14;;;;;;;8.77;7.40;;;3.70;99.90;;;;;;5057218;28;20464;-83
2022/04/05 04:55:39;;;;;;;7.00;5.47;;;3.80;99.90;;;;;;5058909;28;20490;-82
2022/04/05 04:58:05;;;;;;;6.27;4.93;;;3.70;99.90;;;;;;5059603;28;20733;-82
2022/04/05 05:00:31;;;;;;;8.23;6.17;;;3.60;99.90;;;;;;5059361;28;20636;-83
2022/04/05 05:02:57;;;;;;;8.53;6.33;;;3.70;99.90;;;;;;5057658;28;20663;-82
2022/04/05 05:05:23;;;;;;;9.43;7.07;;;3.70;99.90;;;;;;5058941;28;20185;-82
2022/04/05 05:07:51;;;;;;;8.40;6.43;;;3.60;99.90;;;;;;5057096;28;20188;-82
2022/04/05 05:10:18;;;;;;;12.03;7.17;;;3.60;99.90;;;;;;5056087;28;20416;-82
2022/04/05 05:12:45;;;;;;;10.73;7.70;;;3.60;99.90;;;;;;5058520;28;20493;-82
2022/04/05 05:15:15;;;;;;;7.67;6.87;;;3.60;99.90;;;;;;5055968;28;20420;-83
2022/04/05 05:17:41;;;;;;;9.00;6.67;;;3.60;99.90;;;;;;5058011;28;20845;-82
2022/04/05 05:20:08;;;;;;;9.87;6.87;;;3.60;99.90;;;;;;5058765;28;20236;-82
2022/04/05 05:22:34;;;;;;;6.53;4.87;;;3.60;99.90;;;;;;5058360;28;20788;-82
2022/04/05 05:25:00;;;;;;;8.33;6.93;;;3.50;99.90;;;;;;5060197;28;20451;-79
2022/04/05 05:27:27;;;;;;;4.43;3.17;;;3.60;99.90;;;;;;5060051;28;20174;-82
2022/04/05 05:29:53;;;;;;;8.60;6.20;;;;;;;;;;5059792;28;20198;-82
2022/04/05 05:32:19;;;;;;;8.83;7.20;;;3.50;99.90;;;;;;5058655;28;20511;-82
2022/04/05 05:34:45;;;;;;;6.23;5.63;;;3.50;99.90;;;;;;5057856;28;20416;-82
2022/04/05 05:37:11;;;;;;;8.50;6.07;;;3.40;99.90;;;;;;5056497;28;20873;-80
2022/04/05 05:39:37;;;;;;;7.40;5.43;;;;;;;;;;5058016;28;20209;-82
2022/04/05 05:42:07;;;;;;;10.27;8.07;;;3.40;99.90;;;;;;5058419;28;20174;-81
2022/04/05 05:44:34;;;;;;;8.00;6.33;;;3.30;99.90;;;;;;5056637;28;20420;-81
2022/04/05 05:47:01;;;;;;;8.47;6.53;;;3.30;99.90;;;;;;5058640;28;20918;-81
2022/04/05 05:49:26;;;;;;;10.33;6.77;;;3.20;99.90;;;;;;5058788;28;20793;-81
2022/04/05 05:51:52;;;;;;;6.40;5.30;;;3.20;99.90;;;;;;5059499;28;20433;-83
2022/04/05 05:54:18;;;;;;;8.13;6.17;;;3.10;99.90;;;;;;5060382;28;20196;-81
2022/04/05 05:56:44;;;;;;;8.53;6.07;;;3.00;99.90;;;;;;5060659;28;20627;-82
2022/04/05 05:59:10;;;;;;;8.70;5.83;;;3.10;99.90;;;;;;5059672;28;20471;-81
2022/04/05 06:01:36;;;;;;;8.57;6.50;;;3.10;99.90;;;;;;5059996;28;20205;-80
2022/04/05 06:04:02;;;;;;;7.70;5.43;;;3.00;99.90;;;;;;5059151;28;20181;-79
2022/04/05 06:06:31;;;;;;;3.23;2.93;;;3.00;99.90;;;;;;5061416;28;20174;-81
2022/04/05 06:08:56;;;;;;;7.40;5.70;;;3.00;99.90;;;;;;5060972;28;20236;-81
2022/04/05 06:11:23;;;;;;;6.40;5.57;;;3.50;99.90;;;;;;5060990;28;20416;-80
2022/04/05 06:13:50;;;;;;;6.73;5.63;;;3.10;99.90;;;;;;5056966;28;20208;-81
2022/04/05 06:16:16;;;;;;;4.60;4.03;;;3.10;99.90;;;;;;5057914;28;20431;-82
2022/04/05 06:18:47;;;;;;;9.33;6.53;;;3.10;99.90;;;;;;5057093;28;20455;-82
2022/04/05 06:21:16;;;;;;;8.87;6.90;;;3.00;99.90;;;;;;5057064;28;20177;-82
2022/04/05 06:23:42;;;;;;;8.83;6.00;;;3.00;99.90;;;;;;5055316;28;20419;-82
2022/04/05 06:26:08;;;;;;;7.50;5.80;;;3.00;99.90;;;;;;5061696;28;20461;-81
2022/04/05 06:28:34;;;;;;;6.60;5.17;;;3.00;99.90;;;;;;5074732;28;20531;-81
2022/04/05 06:31:00;;;;;;;9.57;7.10;;;3.50;99.90;;;;;;5060311;28;20177;-81
2022/04/05 06:33:26;;;;;;;10.27;6.70;;;4.40;99.90;;;;;;5060198;28;20181;-82
2022/04/05 06:35:56;;;;;;;10.40;7.80;;;3.00;99.90;;;;;;5058524;28;20185;-80
2022/04/05 06:38:22;;;;;;;8.77;6.30;;;3.00;99.90;;;;;;5061175;28;20267;-79
2022/04/05 06:40:49;;;;;;;9.70;6.07;;;2.90;99.90;;;;;;5062358;28;20514;-81
2022/04/05 06:43:17;;;;;;;9.00;6.57;;;2.90;99.90;;;;;;5058779;28;20412;-82
2022/04/05 06:45:43;;;;;;;10.80;7.23;;;;;;;;;;5057142;28;20189;-81
2022/04/05 06:48:11;;;;;;;9.00;6.57;;;3.00;99.90;;;;;;5059021;28;20485;-79
2022/04/05 06:50:38;;;;;;;12.93;7.20;;;3.00;99.90;;;;;;5058416;28;20419;-82
2022/04/05 06:53:05;;;;;;;11.47;6.77;;;3.00;99.90;;;;;;5058895;28;20774;-81
2022/04/05 06:55:31;;;;;;;7.57;5.87;;;3.00;99.90;;;;;;5058979;28;20795;-81
2022/04/05 06:57:57;;;;;;;9.07;4.57;;;3.00;99.90;;;;;;5060276;28;20423;-82
2022/04/05 07:00:24;;;;;;;5.00;3.90;;;;;;;;;;5058740;28;20209;-82
2022/04/05 07:02:54;;;;;;;7.20;4.13;;;;;;;;;;5057705;28;20420;-81
2022/04/05 07:05:20;;;;;;;8.50;6.20;;;3.20;99.90;;;;;;5058570;28;20415;-82
2022/04/05 07:07:46;;;;;;;8.13;5.87;;;;;;;;;;5057921;28;20408;-81
2022/04/05 07:10:15;;;;;;;8.37;6.20;;;3.20;99.90;;;;;;5055926;28;20522;-81
2022/04/05 07:12:42;;;;;;;9.27;6.67;;;3.50;99.90;;;;;;5056279;28;20419;-80
2022/04/05 07:15:10;;;;;;;6.07;4.83;;;;;;;;;;5058984;28;20418;-82
2022/04/05 07:17:37;;;;;;;5.97;4.50;;;3.30;99.90;;;;;;5056865;28;20438;-81
2022/04/05 07:20:07;;;;;;;5.23;4.23;;;3.90;99.90;;;;;;5056237;28;20456;-80
2022/04/05 07:22:33;;;;;;;7.60;5.70;;;3.40;99.90;;;;;;5058256;28;20443;-80
2022/04/05 07:24:58;;;;;;;5.10;4.00;;;3.50;99.90;;;;;;5057789;28;20404;-81
2022/04/05 07:27:24;;;;;;;6.20;4.57;;;3.50;99.90;;;;;;5056486;28;20223;-82
2022/04/05 07:29:50;;;;;;;6.50;4.20;;;;;;;;;;5058053;28;20197;-81
2022/04/05 07:32:16;;;;;;;3.13;2.83;;;;;;;;;;5059193;28;20180;-82
2022/04/05 07:34:42;;;;;;;3.77;3.37;;;3.60;99.90;;;;;;5060781;28;20415;-80
2022/04/05 07:37:10;;;;;;;4.27;3.63;;;3.60;99.90;;;;;;5058963;28;20200;-80
2022/04/05 07:39:36;;;;;;;4.30;3.40;;;3.70;99.90;;;;;;5059807;28;20220;-79
2022/04/05 07:42:02;;;;;;;5.17;4.50;;;4.10;99.90;;;;;;5059289;28;20465;-80
2022/04/05 07:44:28;;;;;;;5.23;4.00;;;3.90;99.90;;;;;;5061078;28;20416;-80
2022/04/05 07:46:53;;;;;;;4.83;3.73;;;3.90;99.90;;;;;;5061910;28;20542;-80
2022/04/05 07:49:19;;;;;;;4.57;3.70;;;4.00;99.90;;;;;;5062165;28;20193;-80
2022/04/05 07:51:45;;;;;;;5.93;4.27;;;4.10;99.90;;;;;;5061792;28;20174;-80
2022/04/05 07:54:10;;;;;;;9.53;4.13;;;4.10;99.90;;;;;;5060200;28;20181;-79
2022/04/05 07:56:36;;;;;;;8.17;5.90;;;4.10;99.90;;;;;;5061070;28;20184;-79
2022/04/05 07:59:02;;;;;;;8.13;5.03;;;4.20;99.90;;;;;;5059570;28;20213;-79
2022/04/05 08:01:29;;;;;;;4.83;4.17;;;4.30;99.90;;;;;;5061175;28;20166;-81
2022/04/05 08:03:56;;;;;;;6.00;4.73;;;4.40;99.90;;;;;;5059314;28;20416;-79
2022/04/05 08:06:23;;;;;;;4.70;4.10;;;4.50;99.90;;;;;;5060494;28;20408;-81
2022/04/05 08:08:50;;;;;;;7.10;4.97;;;4.50;99.90;;;;;;5059551;28;20509;-81
2022/04/05 08:11:15;;;;;;;5.17;4.07;;;4.50;99.90;;;;;;5060897;28;20424;-82
2022/04/05 08:13:41;;;;;;;4.07;3.37;;;4.70;99.90;;;;;;5059732;28;20178;-81
2022/04/05 08:16:07;;;;;;;7.80;3.13;;;4.70;99.90;;;;;;5060440;28;20219;-82
2022/04/05 08:18:32;;;;;;;4.90;4.07;;;4.80;99.90;;;;;;5063557;28;20208;-82
2022/04/05 08:20:58;;;;;;;4.90;4.27;;;4.80;99.90;;;;;;5061942;28;20201;-79
2022/04/05 08:23:24;;;;;;;4.47;3.20;;;4.90;99.90;;;;;;5061443;28;20295;-81
2022/04/05 08:25:49;;;;;;;3.27;2.60;;;4.90;99.90;;;;;;5061541;28;20197;-79
2022/04/05 08:28:15;;;;;;;5.80;4.20;;;5.00;99.90;;;;;;5060058;28;20197;-80
2022/04/05 08:30:41;;;;;;;4.27;3.50;;;5.00;99.90;;;;;;5061038;28;20513;-80
2022/04/05 08:33:07;;;;;;;8.10;4.70;;;5.00;99.90;;;;;;5061583;28;20177;-80
2022/04/05 08:35:33;;;;;;;4.93;3.63;;;5.20;99.90;;;;;;5062675;28;20197;-81
2022/04/05 08:37:58;;;;;;;8.73;5.30;;;5.20;99.90;;;;;;5062764;28;20215;-80
2022/04/05 08:40:25;;;;;;;13.97;7.47;;;5.20;99.90;;;;;;5062200;28;20181;-81
2022/04/05 08:42:53;;;;;;;3.60;3.27;;;5.20;99.90;;;;;;5060955;28;20166;-81
2022/04/05 08:45:20;;;;;;;3.03;2.60;;;5.20;99.90;;;;;;5060840;28;20170;-82
2022/04/05 08:47:47;;;;;;;12.57;7.57;;;5.20;99.90;;;;;;5061917;28;20174;-81
2022/04/05 08:50:21;;;;;;;6.07;4.20;;;5.20;99.90;;;;;;5061053;28;20404;-80
2022/04/05 08:52:47;;;;;;;3.60;2.67;;;5.40;99.90;;;;;;5060894;28;20426;-81
2022/04/05 08:55:14;;;;;;;3.00;2.40;;;5.40;99.90;;;;;;5061615;28;20193;-83
2022/04/05 08:57:40;;;;;;;4.77;3.60;;;5.40;99.90;;;;;;5062458;28;20223;-81
2022/04/05 09:00:08;;;;;;;2.77;2.47;;;5.40;99.90;;;;;;5066129;28;20197;-80
2022/04/05 09:02:34;;;;;;;6.87;3.90;;;5.60;99.90;;;;;;5073812;28;20174;-81
2022/04/05 09:04:59;;;;;;;5.70;4.23;;;5.60;99.90;;;;;;5060622;28;20237;-79
2022/04/05 09:07:30;;;;;;;3.60;3.30;;;5.70;99.90;;;;;;5058887;28;20177;-82
2022/04/05 09:10:13;;;;;;;4.77;2.83;;;5.70;99.90;;;;;;5060522;28;20213;-80
2022/04/05 09:12:47;;;;;;;5.70;3.47;;;5.60;99.90;;;;;;5060834;28;20165;-80
2022/04/05 09:15:18;;;;;;;3.67;2.90;;;5.70;99.90;;;;;;5060305;28;20177;-82
2022/04/05 09:17:45;;;;;;;6.10;3.60;;;5.60;99.90;;;;;;5058571;28;20525;-79
2022/04/05 09:20:13;;;;;;;3.77;3.37;;;5.60;99.90;;;;;;5060074;28;20664;-80
2022/04/05 09:22:39;;;;;;;3.80;3.40;;;5.60;99.90;;;;;;5059218;28;20542;-82
2022/04/05 09:25:14;;;;;;;4.33;3.67;;;5.80;99.90;;;;;;5059124;28;20191;-79
2022/04/05 09:27:54;;;;;;;4.93;3.73;;;5.80;99.90;;;;;;5060096;28;20519;-80
2022/04/05 09:30:27;;;;;;;3.20;2.83;;;5.80;99.90;;;;;;5058881;28;20269;-82
2022/04/05 09:32:54;;;;;;;3.13;2.50;;;5.70;99.90;;;;;;5060484;28;20241;-82
2022/04/05 09:35:23;;;;;;;4.07;2.80;;;5.60;99.90;;;;;;5058897;28;20609;-81
2022/04/05 09:37:48;;;;;;;3.37;3.00;;;5.60;99.90;;;;;;5060088;28;20194;-82
2022/04/05 09:40:14;;;;;;;3.43;3.10;;;;;;;;;;5060699;28;20205;-81
2022/04/05 09:43:14;;;;;;;4.57;3.40;;;5.50;99.90;;;;;;5062870;28;20648;-80
2022/04/05 09:45:57;;;;;;;3.47;2.73;;;5.50;99.90;;;;;;5060238;28;20190;-80
2022/04/05 09:48:35;;;;;;;3.77;3.00;;;5.50;99.90;;;;;;5059281;28;20451;-81
2022/04/05 09:51:03;;;;;;;3.40;3.10;;;5.50;99.90;;;;;;5060228;28;20241;-80
2022/04/05 09:53:50;;;;;;;3.73;3.30;;;5.50;99.90;;;;;;5059832;28;20503;-80
2022/04/05 09:56:22;;;;;;;3.87;3.03;;;5.50;99.90;;;;;;5058801;28;20173;-82
2022/04/05 09:58:54;;;;;;;4.57;3.77;;;5.60;99.90;;;;;;5060109;28;20608;-79
2022/04/05 10:01:22;;;;;;;4.43;3.30;;;5.60;99.90;;;;;;5060933;28;20162;-82
2022/04/05 10:04:02;;;;;;;3.57;3.00;;;5.70;99.90;;;;;;5060723;28;20488;-79
2022/04/05 10:06:30;;;;;;;4.50;3.17;;;5.80;99.90;;;;;;5058904;28;20247;-80
2022/04/05 10:08:57;;;;;;;4.90;2.83;;;6.00;99.90;;;;;;5058849;28;20211;-82
2022/04/05 10:11:25;;;;;;;3.10;2.80;;;6.00;99.90;;;;;;5058196;28;20555;-81
2022/04/05 10:13:50;;;;;;;3.70;2.93;;;6.00;99.90;;;;;;5059442;28;20583;-81
2022/04/05 10:16:17;;;;;;;2.60;2.37;;;;;;;;;;5060875;28;20189;-80
2022/04/05 10:18:45;;;;;;;3.27;2.60;;;6.20;99.90;;;;;;5059954;28;20255;-81
2022/04/05 10:21:11;;;;;;;4.67;2.90;;;6.20;99.90;;;;;;5060239;28;20651;-81
2022/04/05 10:23:41;;;;;;;2.00;1.80;;;6.30;99.90;;;;;;5059126;28;20216;-82
2022/04/05 10:26:09;;;;;;;3.57;3.27;;;6.20;99.90;;;;;;5059943;28;20173;-82
2022/04/05 10:28:36;;;;;;;3.47;3.17;;;6.40;99.90;;;;;;5057997;28;20292;-82
2022/04/05 10:31:20;;;;;;;6.60;3.80;;;6.40;99.90;;;;;;5059833;28;20184;-83
2022/04/05 10:34:12;;;;;;;6.37;3.77;;;6.40;99.90;;;;;;5062237;28;20162;-83
2022/04/05 10:36:39;;;;;;;3.93;2.50;;;6.40;99.90;;;;;;5062171;28;20244;-81
2022/04/05 10:39:17;;;;;;;5.20;3.03;;;6.40;99.90;;;;;;5058779;28;20498;-82
2022/04/05 10:42:04;;;;;;;5.90;3.37;;;6.50;99.90;;;;;;5060146;28;20642;-83
2022/04/05 10:44:30;;;;;;;3.17;2.10;;;6.60;99.90;;;;;;5059327;28;20173;-82
2022/04/05 10:47:01;;;;;;;2.30;1.00;;;6.60;99.90;;;;;;5060195;28;20228;-82
2022/04/05 10:49:45;;;;;;;2.10;1.70;;;6.70;99.90;;;;;;5061639;28;20194;-83
2022/04/05 10:52:32;;;;;;;4.47;2.70;;;6.80;99.90;;;;;;5063314;28;20173;-82
2022/04/05 10:55:06;;;;;;;2.63;2.13;;;6.90;99.90;;;;;;5061059;28;20692;-83
2022/04/05 10:57:38;;;;;;;2.17;1.97;;;7.00;99.90;;;;;;5062213;28;20169;-80
2022/04/05 11:00:12;;;;;;;2.47;2.00;;;7.00;99.90;;;;;;5057685;28;20280;-81
2022/04/05 11:02:47;;;;;;;2.30;2.10;;;7.20;99.90;;;;;;5059395;28;20157;-83
2022/04/05 11:05:18;;;;;;;2.40;2.20;;;7.20;99.90;;;;;;5057713;28;20173;-80
2022/04/05 11:07:59;;;;;;;2.20;1.90;;;7.50;99.90;;;;;;5060772;28;20667;-80
2022/04/05 11:10:37;;;;;;;3.57;2.33;;;7.50;99.90;;;;;;5062188;28;20172;-82
2022/04/05 11:13:08;;;;;;;3.63;2.47;;;7.60;99.90;;;;;;5062867;28;20562;-79
2022/04/05 11:15:52;;;;;;;8.30;7.40;;;7.70;99.90;;;;;;5062369;28;20174;-80
2022/04/05 11:18:22;;;;;;;2.87;2.30;;;8.00;99.90;;;;;;5042457;28;20210;-79
2022/04/05 11:20:52;;;;;;;2.23;1.57;;;7.90;99.90;;;;;;5060725;28;20180;-80
2022/04/05 11:23:43;;;;;;;3.13;2.17;;;7.90;99.90;;;;;;5059876;28;20700;-79
2022/04/05 11:26:33;;;;;;;3.80;1.83;;;7.70;99.90;;;;;;5059960;28;20174;-80
2022/04/05 11:29:01;;;;;;;1.40;1.30;;;7.80;99.90;;;;;;5058818;28;20201;-80
2022/04/05 11:31:40;;;;;;;3.27;1.70;;;7.70;99.90;;;;;;5059272;28;20545;-81
2022/04/05 11:34:46;;;;;;;1.90;1.23;;;7.80;99.90;;;;;;5058526;28;20174;-81
2022/04/05 11:37:11;;;;;;;2.03;1.53;;;7.80;99.90;;;;;;5059450;28;20201;-81
2022/04/05 11:39:40;;;;;;;2.97;1.57;;;7.70;99.90;;;;;;5059206;28;20666;-78
2022/04/05 11:42:13;;;;;;;1.83;1.53;;;7.60;99.90;;;;;;5059300;28;20180;-81
2022/04/05 11:44:49;;;;;;;2.80;2.03;;;7.50;99.90;;;;;;5058642;28;20199;-81
2022/04/05 11:47:15;;;;;;;1.97;1.73;;;7.40;99.90;;;;;;5058630;28;20177;-80
2022/04/05 11:49:42;;;;;;;4.80;1.53;;;7.50;99.90;;;;;;5059701;28;20225;-81
2022/04/05 11:52:10;;;;;;;4.33;2.77;;;7.50;99.90;;;;;;5060094;28;20182;-81
2022/04/05 11:56:00;;;;;;;4.87;1.80;;;7.60;99.90;;;;;;5059313;28;20205;-81
2022/04/05 11:57:22;;;;;;;5.50;2.00;;;7.70;99.90;;;;;;5061176;28;20636;-81
2022/04/05 11:59:48;;;;;;;2.30;1.80;;;7.80;99.90;;;;;;5061337;28;20276;-80
2022/04/05 12:02:27;;;;;;;2.10;1.90;;;7.80;99.90;;;;;;5061313;28;20181;-82
2022/04/05 12:04:57;;;;;;;2.03;1.83;;;7.90;99.90;;;;;;5059923;28;20512;-82
2022/04/05 12:07:23;;;;;;;7.17;4.83;;;8.10;99.90;;;;;;5059042;28;20545;-81
2022/04/05 12:09:49;;;;;;;3.40;2.47;;;8.20;99.90;;;;;;5061844;28;20233;-81
2022/04/05 12:12:15;;;;;;;8.73;4.83;;;8.30;99.90;;;;;;5059770;28;20577;-81
2022/04/05 12:14:41;;;;;;;2.17;1.90;;;8.40;99.90;;;;;;5058556;28;20270;-81
2022/04/05 12:17:07;;;;;;;1.97;1.47;;;8.40;99.90;;;;;;5057285;28;20574;-80
2022/04/05 12:19:39;;;;;;;3.20;1.87;;;8.40;99.90;;;;;;5058003;28;20549;-81
2022/04/05 12:22:11;;;;;;;2.03;1.80;;;8.50;99.90;;;;;;5058138;28;20170;-81
2022/04/05 12:24:50;;;;;;;2.47;1.93;;;8.40;99.90;;;;;;5058790;28;20205;-82
2022/04/05 12:27:21;;;;;;;2.07;1.80;;;8.30;99.90;;;;;;5059178;28;20179;-82
2022/04/05 12:29:48;;;;;;;3.20;2.33;;;8.40;99.90;;;;;;5066744;28;20262;-81
2022/04/05 12:32:16;;;;;;;1.33;1.23;;;8.50;99.90;;;;;;5061055;28;20178;-81
2022/04/05 12:34:44;;;;;;;3.13;1.63;;;8.30;99.90;;;;;;5041272;28;20187;-82
2022/04/05 12:37:17;;;;;;;1.93;1.50;;;8.30;99.90;;;;;;5057168;28;20547;-82
2022/04/05 12:39:55;;;;;;;1.80;1.60;;;8.30;99.90;;;;;;5059965;28;20201;-81
2022/04/05 12:42:21;;;;;;;4.27;2.67;;;8.30;99.90;;;;;;5042708;28;20174;-80
2022/04/05 12:44:55;;;;;;;4.00;2.00;;;8.40;99.90;;;;;;5057673;28;20179;-83
2022/04/05 12:47:22;;;;;;;4.13;3.30;;;8.60;99.90;;;;;;5057709;28;20202;-80
2022/04/05 12:49:54;;;;;;;1.90;1.70;;;8.60;99.90;;;;;;5058628;28;20237;-81
2022/04/05 12:52:26;;;;;;;1.97;1.77;;;8.60;99.90;;;;;;5058911;28;20262;-81
2022/04/05 12:55:03;;;;;;;1.70;1.37;;;8.50;99.90;;;;;;5060131;28;20253;-81
2022/04/05 12:57:37;;;;;;;3.70;2.03;;;8.50;99.90;;;;;;5059124;28;20175;-80
2022/04/05 13:00:18;;;;;;;1.83;1.63;;;8.40;99.90;;;;;;5058347;28;20215;-81
2022/04/05 13:02:55;;;;;;;2.10;1.90;;;8.40;99.90;;;;;;5059228;28;20185;-80
2022/04/05 13:08:33;;;;;;;2.43;1.83;;;8.20;99.90;;;;;;5059914;28;20226;-80